createdAt,value
2022-08-05T00:00:21.883Z,97595.19
2022-08-05T00:02:52.322Z,97587.13
2022-08-05T00:06:02.495Z,97596.72
2022-08-05T00:08:34.357Z,97599.75
2022-08-05T00:11:03.537Z,97605.31
2022-08-05T00:13:39.620Z,97602.97
2022-08-05T00:16:15.180Z,97612.41
2022-08-05T00:18:48.756Z,97607.13
2022-08-05T00:21:20.032Z,97617.97
2022-08-05T00:23:53.363Z,97605.72
2022-08-05T00:26:23.502Z,97615.34
2022-08-05T00:28:53.188Z,97622.41
2022-08-05T00:31:53.370Z,97619.94
2022-08-05T00:34:56.994Z,97630.50
2022-08-05T00:37:11.419Z,97630.50
2022-08-05T00:39:57.930Z,97629.25
2022-08-05T00:42:41.183Z,97629.50
2022-08-05T00:45:13.566Z,97635.09
2022-08-05T00:47:56.381Z,97636.47
2022-08-05T00:50:27.077Z,97639.09
2022-08-05T00:52:57.718Z,97641.34
2022-08-05T00:55:34.091Z,97647.19
2022-08-05T00:58:19.143Z,97645.53
2022-08-05T01:00:50.265Z,97647.47
2022-08-05T01:03:22.611Z,97649.69
2022-08-05T01:05:54.461Z,97648.28
2022-08-05T01:08:30.624Z,97649.69
2022-08-05T01:11:37.620Z,97655.13
2022-08-05T01:14:28.108Z,97660.41
2022-08-05T01:17:12.558Z,97653.03
2022-08-05T01:20:03.434Z,97659.72
2022-08-05T01:22:38.398Z,97661.38
2022-08-05T01:25:41.965Z,97662.50
2022-08-05T01:28:48.467Z,97662.91
2022-08-05T01:31:42.562Z,97662.38
2022-08-05T01:34:43.612Z,97665.97
2022-08-05T01:37:31.501Z,97657.34
2022-08-05T01:40:04.478Z,97654.28
2022-08-05T01:42:37.780Z,97658.03
2022-08-05T01:45:12.613Z,97661.63
2022-08-05T01:47:47.899Z,97668.78
2022-08-05T01:50:28.520Z,97672.09
2022-08-05T01:53:03.197Z,97678.91
2022-08-05T01:55:36.947Z,97676.41
2022-08-05T01:58:15.647Z,97677.06
2022-08-05T02:00:53.560Z,97680.28
2022-08-05T02:03:46.558Z,97683.22
2022-08-05T02:06:33.240Z,97690.34
2022-08-05T02:09:07.533Z,97699.19
2022-08-05T02:11:56.631Z,97696.97
2022-08-05T02:14:31.943Z,97695.84
2022-08-05T02:17:29.955Z,97696.97
2022-08-05T02:20:08.896Z,97698.66
2022-08-05T02:22:46.953Z,97707.25
2022-08-05T02:25:27.235Z,97704.19
2022-08-05T02:28:08.843Z,97718.69
2022-08-05T02:30:54.795Z,97727.84
2022-08-05T02:33:38.169Z,97732.88
2022-08-05T02:36:15.623Z,97726.84
2022-08-05T02:38:53.574Z,97712.19
2022-08-05T02:41:28.596Z,97722.78
2022-08-05T02:44:13.192Z,97722.00
2022-08-05T02:46:58.803Z,97716.91
2022-08-05T02:49:37.930Z,97717.88
2022-08-05T02:52:29.831Z,97720.97
2022-08-05T02:55:05.498Z,97733.09
2022-08-05T02:58:10.178Z,97737.75
2022-08-05T03:00:30.836Z,97736.31
2022-08-05T03:03:02.029Z,97735.31
2022-08-05T03:06:54.362Z,97729.38
2022-08-05T03:08:29.745Z,97732.34
2022-08-05T03:11:55.638Z,97727.75
2022-08-05T03:13:51.128Z,97722.69
2022-08-05T03:16:31.711Z,97724.56
2022-08-05T03:19:04.291Z,97725.94
2022-08-05T03:21:48.711Z,97733.06
2022-08-05T03:24:29.635Z,97723.44
2022-08-05T03:27:03.218Z,97723.84
2022-08-05T03:29:44.468Z,97716.22
2022-08-05T03:32:30.881Z,97712.09
2022-08-05T03:35:01.920Z,97708.00
2022-08-05T03:37:45.778Z,97707.34
2022-08-05T03:40:24.070Z,97704.59
2022-08-05T03:42:54.399Z,97707.41
2022-08-05T03:45:25.225Z,97711.31
2022-08-05T03:47:57.239Z,97707.97
2022-08-05T03:50:50.356Z,97711.94
2022-08-05T03:55:06.751Z,97704.59
2022-08-05T03:56:38.174Z,97708.63
2022-08-05T03:59:21.412Z,97717.69
2022-08-05T04:01:59.400Z,97713.84
2022-08-05T04:04:29.982Z,97717.75
2022-08-05T04:07:00.681Z,97735.47
2022-08-05T04:09:32.001Z,97728.06
2022-08-05T04:12:19.592Z,97726.75
2022-08-05T04:14:54.916Z,97719.81
2022-08-05T04:17:55.835Z,97714.34
2022-08-05T04:20:21.375Z,97714.03
2022-08-05T04:22:52.835Z,97699.75
2022-08-05T04:25:24.159Z,97693.00
2022-08-05T04:28:12.921Z,97683.22
2022-08-05T04:30:42.961Z,97689.28
2022-08-05T04:33:12.935Z,97680.56
2022-08-05T04:36:11.229Z,97668.34
2022-08-05T04:38:39.628Z,97669.41
2022-08-05T04:41:10.122Z,97665.88
2022-08-05T04:43:48.033Z,97671.19
2022-08-05T04:46:28.270Z,97679.84
2022-08-05T04:48:58.838Z,97680.66
2022-08-05T04:51:30.582Z,97687.78
2022-08-05T04:54:01.355Z,97697.94
2022-08-05T04:56:33.341Z,97687.78
2022-08-05T04:59:22.315Z,97691.53
2022-08-05T05:02:07.541Z,97692.84
2022-08-05T05:04:49.802Z,97695.75
2022-08-05T05:07:23.746Z,97689.72
2022-08-05T05:09:53.390Z,97699.09
2022-08-05T05:12:23.325Z,97696.59
2022-08-05T05:14:57.073Z,97694.69
2022-08-05T05:17:55.488Z,97684.72
2022-08-05T05:20:17.736Z,97681.22
2022-08-05T05:22:50.338Z,97681.88
2022-08-05T05:25:20.214Z,97671.66
2022-08-05T05:28:02.271Z,97683.50
2022-08-05T05:30:33.614Z,97688.41
2022-08-05T05:33:15.977Z,97689.00
2022-08-05T05:35:48.285Z,97690.66
2022-08-05T05:38:22.722Z,97680.94
2022-08-05T05:40:59.466Z,97680.09
2022-08-05T05:43:56.609Z,97686.44
2022-08-05T05:46:19.000Z,97678.44
2022-08-05T05:48:51.503Z,97678.03
2022-08-05T05:51:27.811Z,97678.97
2022-08-05T05:53:59.902Z,97685.72
2022-08-05T05:56:34.771Z,97695.44
2022-08-05T05:59:08.876Z,97701.28
2022-08-05T06:01:57.556Z,97711.28
2022-08-05T06:04:28.022Z,97723.81
2022-08-05T06:06:57.263Z,97733.63
2022-08-05T06:09:49.197Z,97730.50
2022-08-05T06:12:20.704Z,97733.78
2022-08-05T06:14:51.867Z,97732.53
2022-08-05T06:17:24.689Z,97731.75
2022-08-05T06:20:01.317Z,97731.00
2022-08-05T06:22:34.051Z,97729.47
2022-08-05T06:25:59.223Z,97726.00
2022-08-05T06:28:11.314Z,97715.97
2022-08-05T06:30:50.662Z,97700.59
2022-08-05T06:33:20.538Z,97707.34
2022-08-05T06:36:10.589Z,97704.84
2022-08-05T06:38:40.467Z,97696.06
2022-08-05T06:41:17.040Z,97678.06
2022-08-05T06:43:57.742Z,97664.63
2022-08-05T06:46:30.134Z,97651.63
2022-08-05T06:49:01.868Z,97653.09
2022-08-05T06:51:35.434Z,97649.19
2022-08-05T06:54:10.097Z,97649.03
2022-08-05T06:56:55.101Z,97639.72
2022-08-05T06:59:38.828Z,97642.50
2022-08-05T07:02:11.915Z,97642.63
2022-08-05T07:04:44.870Z,97644.88
2022-08-05T07:07:16.444Z,97649.75
2022-08-05T07:09:55.454Z,97640.88
2022-08-05T07:12:49.100Z,97642.72
2022-08-05T07:16:01.082Z,97646.53
2022-08-05T07:18:30.040Z,97640.34
2022-08-05T07:21:04.683Z,97639.16
2022-08-05T07:23:36.014Z,97631.59
2022-08-05T07:26:09.917Z,97629.34
2022-08-05T07:28:43.753Z,97624.50
2022-08-05T07:31:15.073Z,97636.78
2022-08-05T07:33:48.648Z,97638.44
2022-08-05T07:36:21.464Z,97651.88
2022-08-05T07:38:54.827Z,97654.84
2022-08-05T07:42:13.763Z,97651.88
2022-08-05T07:44:19.145Z,97657.50
2022-08-05T07:46:50.561Z,97654.03
2022-08-05T07:49:21.405Z,97651.88
2022-08-05T07:51:54.473Z,97636.56
2022-08-05T07:54:31.639Z,97633.72
2022-08-05T07:57:22.753Z,97631.19
2022-08-05T07:59:54.069Z,97620.28
2022-08-05T08:02:30.770Z,97630.06
2022-08-05T08:05:02.079Z,97638.50
2022-08-05T08:07:39.647Z,97630.13
2022-08-05T08:10:25.434Z,97620.03
2022-08-05T08:12:56.080Z,97624.84
2022-08-05T08:16:33.287Z,97627.97
2022-08-05T08:18:20.743Z,97629.06
2022-08-05T08:21:02.781Z,97618.69
2022-08-05T08:24:01.884Z,97614.84
2022-08-05T08:26:29.813Z,97597.25
2022-08-05T08:29:29.526Z,97590.78
2022-08-05T08:31:53.162Z,97583.38
2022-08-05T08:34:30.429Z,97589.34
2022-08-05T08:37:05.327Z,97587.06
2022-08-05T08:39:37.393Z,97570.31
2022-08-05T08:42:32.576Z,97560.34
2022-08-05T08:45:24.392Z,97552.72
2022-08-05T08:48:11.377Z,97543.41
2022-08-05T08:51:07.615Z,97533.91
2022-08-05T08:53:40.193Z,97521.59
2022-08-05T08:56:14.337Z,97524.66
2022-08-05T08:58:47.969Z,97529.94
2022-08-05T09:01:20.037Z,97520.50
2022-08-05T09:03:55.301Z,97515.16
2022-08-05T09:06:30.373Z,97515.25
2022-08-05T09:09:02.347Z,97518.31
2022-08-05T09:11:50.770Z,97504.34
2022-08-05T09:14:57.274Z,97500.22
2022-08-05T09:17:39.895Z,97507.59
2022-08-05T09:20:06.052Z,97518.13
2022-08-05T09:23:09.063Z,97509.81
2022-08-05T09:26:03.069Z,97507.06
2022-08-05T09:28:36.028Z,97501.81
2022-08-05T09:31:22.856Z,97496.50
2022-08-05T09:34:02.838Z,97492.19
2022-08-05T09:36:59.435Z,97486.50
2022-08-05T09:39:41.426Z,97478.88
2022-08-05T09:42:28.473Z,97482.72
2022-08-05T09:46:04.719Z,97484.50
2022-08-05T09:47:56.912Z,97482.66
2022-08-05T09:50:44.573Z,97480.88
2022-08-05T09:53:26.166Z,97472.34
2022-08-05T09:56:12.673Z,97478.59
2022-08-05T09:58:42.911Z,97481.78
2022-08-05T10:01:31.499Z,97473.84
2022-08-05T10:04:11.993Z,97472.00
2022-08-05T10:06:59.043Z,97465.53
2022-08-05T10:09:30.333Z,97460.47
2022-08-05T10:12:30.497Z,97449.69
2022-08-05T10:15:20.953Z,97448.47
2022-08-05T10:18:22.671Z,97439.81
2022-08-05T10:20:55.743Z,97449.19
2022-08-05T10:23:55.517Z,97444.63
2022-08-05T10:26:16.822Z,97443.47
2022-08-05T10:28:48.122Z,97445.34
2022-08-05T10:32:48.565Z,97452.63
2022-08-05T10:34:11.563Z,97451.00
2022-08-05T10:36:43.044Z,97447.03
2022-08-05T10:39:25.007Z,97450.63
2022-08-05T10:42:34.283Z,97450.16
2022-08-05T10:45:21.399Z,97448.16
2022-08-05T10:48:31.532Z,97451.16
2022-08-05T10:51:22.037Z,97436.53
2022-08-05T10:53:53.342Z,97422.41
2022-08-05T10:56:26.875Z,97420.94
2022-08-05T10:58:56.228Z,97420.13
2022-08-05T11:02:04.676Z,97404.06
2022-08-05T11:04:26.303Z,97403.56
2022-08-05T11:07:02.304Z,97400.53
2022-08-05T11:09:51.972Z,97404.88
2022-08-05T11:12:43.566Z,97390.38
2022-08-05T11:15:20.742Z,97389.03
2022-08-05T11:18:09.893Z,97383.97
2022-08-05T11:20:44.775Z,97381.25
2022-08-05T11:23:49.909Z,97363.38
2022-08-05T11:26:29.201Z,97364.75
2022-08-05T11:29:13.089Z,97362.94
2022-08-05T11:31:58.580Z,97362.81
2022-08-05T11:34:51.786Z,97359.34
2022-08-05T11:38:29.278Z,97367.66
2022-08-05T11:41:34.206Z,97363.22
2022-08-05T11:44:40.817Z,97361.44
2022-08-05T11:47:15.120Z,97363.78
2022-08-05T11:49:51.189Z,97366.41
2022-08-05T11:52:31.170Z,97357.53
2022-08-05T11:55:07.665Z,97360.56
2022-08-05T11:58:10.968Z,97352.66
2022-08-05T12:00:32.177Z,97344.47
2022-08-05T12:03:31.493Z,97339.75
2022-08-05T12:06:10.096Z,97332.53
2022-08-05T12:08:51.438Z,97333.09
2022-08-05T12:11:24.066Z,97332.41
2022-08-05T12:14:07.255Z,97332.00
2022-08-05T12:16:38.731Z,97326.44
2022-08-05T12:19:10.296Z,97324.34
2022-08-05T12:21:59.635Z,97323.22
2022-08-05T12:24:31.238Z,97322.66
2022-08-05T12:27:09.877Z,97326.03
2022-08-05T12:30:22.003Z,97319.22
2022-08-05T12:33:07.113Z,97316.41
2022-08-05T12:35:49.672Z,97316.16
2022-08-05T12:38:30.261Z,97310.88
2022-08-05T12:41:01.589Z,97308.66
2022-08-05T12:43:32.175Z,97305.88
2022-08-05T12:46:01.856Z,97303.50
2022-08-05T12:48:41.170Z,97302.69
2022-08-05T12:51:21.629Z,97304.06
2022-08-05T12:54:16.596Z,97303.13
2022-08-05T12:57:03.905Z,97297.56
2022-08-05T13:01:56.931Z,97303.66
2022-08-05T13:02:39.905Z,97300.06
2022-08-05T13:05:14.352Z,97298.69
2022-08-05T13:07:59.393Z,97297.97
2022-08-05T13:10:34.795Z,97291.72
2022-08-05T13:14:04.699Z,97295.47
2022-08-05T13:16:18.452Z,97284.50
2022-08-05T13:18:58.463Z,97292.28
2022-08-05T13:21:37.982Z,97291.00
2022-08-05T13:24:27.711Z,97290.59
2022-08-05T13:27:11.118Z,97291.00
2022-08-05T13:30:31.403Z,97288.34
2022-08-05T13:32:42.016Z,97291.56
2022-08-05T13:35:12.564Z,97293.50
2022-08-05T13:37:43.839Z,97292.78
2022-08-05T13:40:35.554Z,97292.09
2022-08-05T13:43:04.578Z,97299.16
2022-08-05T13:45:43.176Z,97303.03
2022-08-05T13:48:57.993Z,97295.69
2022-08-05T13:51:14.972Z,97299.19
2022-08-05T13:53:47.752Z,97297.94
2022-08-05T13:56:19.261Z,97302.53
2022-08-05T13:58:52.922Z,97300.41
2022-08-05T14:01:36.263Z,97299.47
2022-08-05T14:04:31.832Z,97294.19
2022-08-05T14:07:25.027Z,97286.44
2022-08-05T14:09:53.039Z,97292.94
2022-08-05T14:12:32.483Z,97292.22
2022-08-05T14:15:05.853Z,97290.59
2022-08-05T14:17:55.059Z,97288.50
2022-08-05T14:20:32.200Z,97291.94
2022-08-05T14:23:02.716Z,97292.50
2022-08-05T14:25:32.226Z,97293.34
2022-08-05T14:28:01.909Z,97288.22
2022-08-05T14:30:31.412Z,97294.34
2022-08-05T14:33:01.023Z,97294.84
2022-08-05T14:35:49.995Z,97291.38
2022-08-05T14:38:31.688Z,97291.88
2022-08-05T14:41:07.791Z,97291.66
2022-08-05T14:43:59.392Z,97291.66
2022-08-05T14:46:30.991Z,97288.06
2022-08-05T14:49:06.483Z,97278.75
2022-08-05T14:51:42.882Z,97278.34
2022-08-05T14:54:28.122Z,97276.66
2022-08-05T14:57:00.943Z,97290.00
2022-08-05T14:59:35.981Z,97290.84
2022-08-05T15:02:25.089Z,97290.69
2022-08-05T15:04:56.659Z,97297.97
2022-08-05T15:08:11.595Z,97309.34
2022-08-05T15:10:16.273Z,97303.53
2022-08-05T15:13:00.484Z,97315.59
2022-08-05T15:15:55.700Z,97327.22
2022-08-05T15:18:21.198Z,97335.69
2022-08-05T15:20:51.056Z,97340.34
2022-08-05T15:23:20.968Z,97335.66
2022-08-05T15:25:53.856Z,97341.50
2022-08-05T15:28:27.103Z,97343.84
2022-08-05T15:30:58.126Z,97336.78
2022-08-05T15:34:05.291Z,97336.81
2022-08-05T15:36:24.563Z,97341.81
2022-08-05T15:40:42.589Z,97336.91
2022-08-05T15:41:58.299Z,97340.72
2022-08-05T15:44:30.278Z,97341.13
2022-08-05T15:47:03.107Z,97344.16
2022-08-05T15:49:53.253Z,97345.25
2022-08-05T15:52:51.661Z,97350.34
2022-08-05T15:55:16.250Z,97362.88
2022-08-05T15:57:49.038Z,97364.09
2022-08-05T16:00:30.495Z,97368.13
2022-08-05T16:03:10.152Z,97373.19
2022-08-05T16:05:41.725Z,97376.59
2022-08-05T16:08:12.365Z,97378.44
2022-08-05T16:10:45.713Z,97391.13
2022-08-05T16:13:23.283Z,97388.72
2022-08-05T16:15:53.996Z,97391.34
2022-08-05T16:18:28.959Z,97388.19
2022-08-05T16:20:59.706Z,97391.25
2022-08-05T16:23:54.284Z,97377.53
2022-08-05T16:26:26.271Z,97387.06
2022-08-05T16:28:57.418Z,97386.00
2022-08-05T16:31:28.146Z,97394.97
2022-08-05T16:34:18.856Z,97402.50
2022-08-05T16:36:49.305Z,97409.16
2022-08-05T16:39:21.525Z,97411.47
2022-08-05T16:42:14.655Z,97408.56
2022-08-05T16:44:54.268Z,97409.81
2022-08-05T16:47:36.016Z,97398.94
2022-08-05T16:50:12.712Z,97407.28
2022-08-05T16:52:46.030Z,97403.75
2022-08-05T16:55:16.416Z,97401.63
2022-08-05T16:57:53.415Z,97396.22
2022-08-05T17:00:34.312Z,97395.41
2022-08-05T17:03:15.361Z,97400.94
2022-08-05T17:05:54.173Z,97399.94
2022-08-05T17:08:36.176Z,97404.72
2022-08-05T17:11:25.496Z,97422.84
2022-08-05T17:14:05.381Z,97431.28
2022-08-05T17:16:37.258Z,97433.16
2022-08-05T17:19:09.563Z,97436.88
2022-08-05T17:21:40.755Z,97445.75
2022-08-05T17:24:58.058Z,97449.97
2022-08-05T17:27:33.679Z,97458.72
2022-08-05T17:30:11.980Z,97473.72
2022-08-05T17:32:48.710Z,97461.47
2022-08-05T17:35:20.800Z,97459.38
2022-08-05T17:37:50.840Z,97451.22
2022-08-05T17:40:22.607Z,97451.78
2022-08-05T17:42:53.664Z,97454.31
2022-08-05T17:45:26.386Z,97452.84
2022-08-05T17:48:09.424Z,97456.13
2022-08-05T17:50:41.188Z,97458.25
2022-08-05T17:53:11.092Z,97451.63
2022-08-05T17:55:41.565Z,97463.25
2022-08-05T17:58:16.617Z,97456.88
2022-08-05T18:00:51.516Z,97461.13
2022-08-05T18:03:59.641Z,97449.75
2022-08-05T18:06:14.944Z,97451.97
2022-08-05T18:08:52.363Z,97446.56
2022-08-05T18:11:33.151Z,97450.53
2022-08-05T18:14:13.370Z,97446.88
2022-08-05T18:16:51.516Z,97441.06
2022-08-05T18:19:25.950Z,97447.56
2022-08-05T18:22:09.520Z,97443.34
2022-08-05T18:24:41.783Z,97439.78
2022-08-05T18:27:18.442Z,97442.88
2022-08-05T18:29:54.610Z,97437.13
2022-08-05T18:32:28.389Z,97438.66
2022-08-05T18:35:00.253Z,97437.56
2022-08-05T18:37:34.065Z,97451.97
2022-08-05T18:40:33.674Z,97444.84
2022-08-05T18:43:01.589Z,97435.56
2022-08-05T18:45:41.496Z,97431.47
2022-08-05T18:48:17.528Z,97427.91
2022-08-05T18:52:05.152Z,97423.84
2022-08-05T18:54:10.313Z,97422.00
2022-08-05T18:56:40.129Z,97423.97
2022-08-05T18:59:43.523Z,97420.41
2022-08-05T19:01:59.593Z,97418.44
2022-08-05T19:04:30.956Z,97411.53
2022-08-05T19:07:02.865Z,97408.28
2022-08-05T19:09:40.274Z,97411.06
2022-08-05T19:12:11.439Z,97407.34
2022-08-05T19:14:59.845Z,97420.94
2022-08-05T19:17:59.407Z,97415.84
2022-08-05T19:20:21.069Z,97418.72
2022-08-05T19:22:53.972Z,97421.75
2022-08-05T19:25:29.832Z,97427.63
2022-08-05T19:28:00.925Z,97430.75
2022-08-05T19:30:30.884Z,97426.44
2022-08-05T19:33:00.815Z,97438.41
2022-08-05T19:35:56.027Z,97433.28
2022-08-05T19:38:24.566Z,97432.97
2022-08-05T19:40:56.602Z,97424.69
2022-08-05T19:44:06.823Z,97416.38
2022-08-05T19:46:29.513Z,97415.34
2022-08-05T19:49:04.780Z,97427.00
2022-08-05T19:52:08.431Z,97421.22
2022-08-05T19:54:31.226Z,97427.06
2022-08-05T19:57:02.268Z,97428.94
2022-08-05T19:59:56.102Z,97425.06
2022-08-05T20:02:23.454Z,97422.63
2022-08-05T20:04:58.885Z,97422.28
2022-08-05T20:07:38.959Z,97427.00
2022-08-05T20:10:22.341Z,97437.88
2022-08-05T20:12:54.226Z,97436.06
2022-08-05T20:15:51.474Z,97437.03
2022-08-05T20:18:33.606Z,97434.72
2022-08-05T20:21:04.602Z,97432.81
2022-08-05T20:23:50.968Z,97434.47
2022-08-05T20:26:23.892Z,97432.34
2022-08-05T20:28:56.296Z,97430.59
2022-08-05T20:31:42.929Z,97427.59
2022-08-05T20:34:19.448Z,97438.09
2022-08-05T20:36:50.085Z,97429.19
2022-08-05T20:39:20.140Z,97429.38
2022-08-05T20:41:51.050Z,97436.88
2022-08-05T20:44:29.910Z,97437.06
2022-08-05T20:47:05.155Z,97438.75
2022-08-05T20:49:39.978Z,97437.75
2022-08-05T20:52:10.534Z,97431.13
2022-08-05T20:54:43.025Z,97424.56
2022-08-05T20:57:43.131Z,97435.66
2022-08-05T21:00:41.119Z,97433.22
2022-08-05T21:03:08.307Z,97426.53
2022-08-05T21:05:53.524Z,97427.94
2022-08-05T21:08:35.857Z,97423.53
2022-08-05T21:12:06.504Z,97430.13
2022-08-05T21:14:03.070Z,97439.44
2022-08-05T21:16:34.493Z,97441.41
2022-08-05T21:19:05.401Z,97442.63
2022-08-05T21:21:44.533Z,97439.31
2022-08-05T21:24:21.339Z,97447.34
2022-08-05T21:26:58.238Z,97443.75
2022-08-05T21:29:32.117Z,97443.75
2022-08-05T21:32:05.759Z,97437.66
2022-08-05T21:34:35.761Z,97440.94
2022-08-05T21:37:05.973Z,97448.44
2022-08-05T21:39:40.617Z,97450.44
2022-08-05T21:42:30.710Z,97450.94
2022-08-05T21:45:01.637Z,97454.84
2022-08-05T21:47:54.836Z,97461.06
2022-08-05T21:50:22.195Z,97457.31
2022-08-05T21:52:51.970Z,97460.34
2022-08-05T21:56:01.520Z,97455.63
2022-08-05T21:58:13.821Z,97454.84
2022-08-05T22:00:43.576Z,97457.47
2022-08-05T22:03:52.088Z,97443.59
2022-08-05T22:06:10.746Z,97455.38
2022-08-05T22:08:42.808Z,97443.00
2022-08-05T22:11:15.743Z,97446.50
2022-08-05T22:14:05.792Z,97436.50
2022-08-05T22:16:40.994Z,97441.22
2022-08-05T22:20:02.180Z,97426.03
2022-08-05T22:22:10.134Z,97434.03
2022-08-05T22:24:58.901Z,97427.91
2022-08-05T22:28:08.610Z,97437.91
2022-08-05T22:30:55.519Z,97435.69
2022-08-05T22:33:55.362Z,97424.88
2022-08-05T22:36:18.396Z,97431.50
2022-08-05T22:38:49.443Z,97422.22
2022-08-05T22:41:26.395Z,97427.66
2022-08-05T22:44:12.879Z,97427.09
2022-08-05T22:46:43.598Z,97439.56
2022-08-05T22:49:46.087Z,97422.94
2022-08-05T22:52:13.854Z,97429.06
2022-08-05T22:54:53.724Z,97421.53
2022-08-05T22:57:23.531Z,97415.03
2022-08-05T22:59:54.321Z,97415.44
2022-08-05T23:02:29.717Z,97412.50
2022-08-05T23:05:01.904Z,97409.03
2022-08-05T23:07:44.790Z,97407.97
2022-08-05T23:10:19.672Z,97413.25
2022-08-05T23:12:54.942Z,97410.44
2022-08-05T23:15:34.942Z,97411.84
2022-08-05T23:18:11.820Z,97411.94
2022-08-05T23:20:46.032Z,97409.19
2022-08-05T23:23:15.821Z,97406.94
2022-08-05T23:25:54.698Z,97408.06
2022-08-05T23:28:28.640Z,97407.81
2022-08-05T23:31:07.034Z,97404.03
2022-08-05T23:34:03.782Z,97406.28
2022-08-05T23:36:40.275Z,97413.09
2022-08-05T23:39:32.231Z,97408.09
2022-08-05T23:42:14.200Z,97412.13
2022-08-05T23:44:44.423Z,97413.06
2022-08-05T23:47:15.387Z,97412.41
2022-08-05T23:49:47.229Z,97410.44
2022-08-05T23:52:31.704Z,97408.38
2022-08-05T23:55:05.320Z,97413.25
2022-08-05T23:57:37.477Z,97413.25
